Time;durP1;ratioP1;P1;durP2;ratioP2;P2;SDS_P1;SDS_P2;PMS_P1;PMS_P2;Temp;Humidity;BMP_temperature;BMP_pressure;BME280_temperature;BME280_humidity;BME280_pressure;Samples;Min_cycle;Max_cycle;Signal;HPM_P1;HPM_P2
2023/05/24 00:00:29;;;;;;;11.30;2.80;;;8.60;99.90;;;;;;5093886;28;20183;-50
2023/05/24 00:02:56;;;;;;;10.27;2.40;;;8.60;99.90;;;;;;5095456;28;20202;-50
2023/05/24 00:05:22;;;;;;;10.23;2.40;;;8.60;99.90;;;;;;5095192;28;20226;-50
2023/05/24 00:07:48;;;;;;;8.40;2.07;;;8.60;99.90;;;;;;5093141;28;20192;-49
2023/05/24 00:10:14;;;;;;;6.27;2.00;;;8.50;99.90;;;;;;5093407;28;20175;-49
2023/05/24 00:12:39;;;;;;;11.00;2.00;;;8.50;99.90;;;;;;5092924;28;20738;-49
2023/05/24 00:15:06;;;;;;;9.33;2.17;;;8.50;99.90;;;;;;5093537;28;20185;-51
2023/05/24 00:17:33;;;;;;;10.03;2.27;;;8.40;99.90;;;;;;5093428;28;20178;-50
2023/05/24 00:19:59;;;;;;;10.07;2.43;;;8.40;99.90;;;;;;5093718;28;20202;-49
2023/05/24 00:22:24;;;;;;;8.97;1.97;;;8.30;99.90;;;;;;5093228;28;20714;-50
2023/05/24 00:24:50;;;;;;;9.07;2.27;;;8.30;99.90;;;;;;5093110;28;20174;-49
2023/05/24 00:27:16;;;;;;;7.47;2.57;;;8.30;99.90;;;;;;5093224;28;20643;-51
2023/05/24 00:29:41;;;;;;;11.67;2.53;;;8.20;99.90;;;;;;5092946;28;20550;-51
2023/05/24 00:32:07;;;;;;;10.67;2.70;;;8.20;99.90;;;;;;5093116;28;20185;-49
2023/05/24 00:34:32;;;;;;;5.97;2.03;;;8.20;99.90;;;;;;5092843;28;20220;-51
2023/05/24 00:36:59;;;;;;;7.20;2.00;;;8.10;99.90;;;;;;5092797;28;20169;-50
2023/05/24 00:39:25;;;;;;;9.83;2.63;;;8.10;99.90;;;;;;5092809;28;20196;-50
2023/05/24 00:41:51;;;;;;;13.33;2.80;;;8.00;99.90;;;;;;5093622;28;20186;-49
2023/05/24 00:44:16;;;;;;;10.77;2.47;;;8.00;99.90;;;;;;5096648;28;20208;-50
2023/05/24 00:46:42;;;;;;;8.97;2.17;;;8.00;99.90;;;;;;5096408;28;20181;-51
2023/05/24 00:49:08;;;;;;;9.20;2.20;;;7.90;99.90;;;;;;5096253;28;20177;-49
2023/05/24 00:51:35;;;;;;;11.20;2.43;;;7.90;99.90;;;;;;5096185;28;20203;-51
2023/05/24 00:54:01;;;;;;;10.70;1.77;;;7.90;99.90;;;;;;5096171;28;20289;-49
2023/05/24 00:56:27;;;;;;;8.30;2.10;;;7.80;99.90;;;;;;5096115;28;20261;-49
2023/05/24 00:58:55;;;;;;;6.53;2.23;;;7.80;99.90;;;;;;5096375;28;20641;-50
2023/05/24 01:01:25;;;;;;;13.27;2.27;;;7.70;99.90;;;;;;5096269;28;20188;-50
2023/05/24 01:03:53;;;;;;;8.73;2.40;;;7.70;99.90;;;;;;5095953;28;20216;-48
2023/05/24 01:06:19;;;;;;;10.10;2.50;;;7.70;99.90;;;;;;5095942;28;20191;-50
2023/05/24 01:09:02;;;;;;;13.60;2.87;;;7.60;99.90;;;;;;5095885;28;20736;-49
2023/05/24 01:11:41;;;;;;;17.03;2.93;;;7.60;99.90;;;;;;5096339;28;20707;-50
2023/05/24 01:14:16;;;;;;;7.33;2.67;;;7.60;99.90;;;;;;5095698;28;20199;-49
2023/05/24 01:16:52;;;;;;;8.37;2.20;;;7.50;99.90;;;;;;5096023;28;20162;-50
2023/05/24 01:19:42;;;;;;;10.50;2.70;;;7.50;99.90;;;;;;5095974;28;20172;-48
2023/05/24 01:22:26;;;;;;;10.03;3.13;;;7.50;99.90;;;;;;5095893;28;20163;-51
2023/05/24 01:24:57;;;;;;;7.57;2.50;;;7.40;99.90;;;;;;5094302;28;20252;-50
2023/05/24 01:27:23;;;;;;;13.70;2.40;;;7.40;99.90;;;;;;5095790;28;20168;-49
2023/05/24 01:29:52;;;;;;;12.63;3.10;;;7.40;99.90;;;;;;5095497;28;20171;-49
2023/05/24 01:32:21;;;;;;;9.07;2.40;;;7.40;99.90;;;;;;5094909;28;20256;-51
2023/05/24 01:34:46;;;;;;;10.03;2.80;;;7.30;99.90;;;;;;5095338;28;20598;-50
2023/05/24 01:37:12;;;;;;;7.33;2.47;;;7.30;99.90;;;;;;5095385;28;20262;-50
2023/05/24 01:39:38;;;;;;;8.57;2.43;;;7.30;99.90;;;;;;5095248;28;20202;-49
2023/05/24 01:42:31;;;;;;;8.30;2.37;;;7.20;99.90;;;;;;5095534;28;20531;-48
2023/05/24 01:45:29;;;;;;;6.57;2.03;;;7.20;99.90;;;;;;5093979;28;20634;-51
2023/05/24 01:48:33;;;;;;;8.80;3.00;;;7.20;99.90;;;;;;5094822;28;20191;-49
2023/05/24 01:51:04;;;;;;;10.13;1.80;;;7.10;99.90;;;;;;5089262;28;20186;-50
2023/05/24 01:53:38;;;;;;;4.00;1.50;;;7.10;99.90;;;;;;5093961;28;20206;-48
2023/05/24 01:56:05;;;;;;;4.40;1.73;;;7.00;99.90;;;;;;5095077;28;20536;-50
2023/05/24 01:58:32;;;;;;;7.80;2.43;;;7.00;99.90;;;;;;5095175;28;20180;-50
2023/05/24 02:00:58;;;;;;;10.77;2.17;;;6.90;99.90;;;;;;5095080;28;20540;-50
2023/05/24 02:03:24;;;;;;;7.67;2.47;;;6.90;99.90;;;;;;5094833;28;20778;-50
2023/05/24 02:05:50;;;;;;;10.87;2.07;;;6.80;99.90;;;;;;5094790;28;20200;-49
2023/05/24 02:08:16;;;;;;;7.53;2.23;;;6.80;99.90;;;;;;5094791;28;20175;-48
2023/05/24 02:10:41;;;;;;;9.57;2.13;;;6.70;99.90;;;;;;5094965;28;20179;-51
2023/05/24 02:13:07;;;;;;;4.77;1.60;;;6.70;99.90;;;;;;5094593;28;20218;-50
2023/05/24 02:15:36;;;;;;;6.67;2.20;;;6.60;99.90;;;;;;5094638;28;20257;-50
2023/05/24 02:18:02;;;;;;;7.63;1.87;;;6.60;99.90;;;;;;5094643;28;20168;-50
2023/05/24 02:20:35;;;;;;;6.27;2.10;;;6.50;99.90;;;;;;5094502;28;20244;-50
2023/05/24 02:23:01;;;;;;;5.17;1.77;;;6.40;99.90;;;;;;5095044;28;20248;-49
2023/05/24 02:25:27;;;;;;;6.43;1.90;;;6.40;99.90;;;;;;5094748;28;20228;-51
2023/05/24 02:27:52;;;;;;;3.70;1.80;;;6.40;99.90;;;;;;5093725;28;20584;-49
2023/05/24 02:30:18;;;;;;;8.53;1.80;;;6.30;99.90;;;;;;5094645;28;20171;-49
2023/05/24 02:32:44;;;;;;;7.33;2.47;;;6.30;99.90;;;;;;5094320;28;20218;-42
2023/05/24 02:35:09;;;;;;;7.23;2.30;;;6.30;99.90;;;;;;5094262;28;20214;-44
2023/05/24 02:37:35;;;;;;;6.23;2.00;;;6.20;99.90;;;;;;5094478;28;20175;-41
2023/05/24 02:40:00;;;;;;;5.70;1.97;;;6.10;99.90;;;;;;5094243;28;20326;-43
2023/05/24 02:42:26;;;;;;;3.97;1.67;;;6.10;99.90;;;;;;5092798;28;20673;-44
2023/05/24 02:44:51;;;;;;;8.57;1.90;;;6.10;99.90;;;;;;5094085;28;20214;-44
2023/05/24 02:47:17;;;;;;;5.93;1.67;;;6.10;99.90;;;;;;5094982;28;20208;-43
2023/05/24 02:49:43;;;;;;;7.37;1.80;;;6.00;99.90;;;;;;5094311;28;20178;-43
2023/05/24 02:52:09;;;;;;;7.07;2.10;;;6.00;99.90;;;;;;5094008;28;20559;-42
2023/05/24 02:54:35;;;;;;;4.67;1.43;;;6.00;99.90;;;;;;5094112;28;20204;-42
2023/05/24 02:57:01;;;;;;;5.27;1.87;;;6.00;99.90;;;;;;5094280;28;20190;-41
2023/05/24 02:59:27;;;;;;;5.03;2.07;;;5.90;99.90;;;;;;5094265;28;20166;-45
2023/05/24 03:01:53;;;;;;;4.30;1.80;;;5.90;99.90;;;;;;5094918;28;20226;-43
2023/05/24 03:04:18;;;;;;;8.30;1.87;;;5.90;99.90;;;;;;5101421;28;20206;-45
2023/05/24 03:06:44;;;;;;;4.40;1.60;;;5.80;99.90;;;;;;5108485;28;20194;-42
2023/05/24 03:09:10;;;;;;;4.63;1.63;;;5.80;99.90;;;;;;5094208;28;20179;-42
2023/05/24 03:11:35;;;;;;;6.50;1.73;;;5.70;99.90;;;;;;5093768;28;20294;-44
2023/05/24 03:14:01;;;;;;;6.07;1.50;;;5.70;99.90;;;;;;5093555;28;20256;-44
2023/05/24 03:16:26;;;;;;;4.50;1.60;;;5.70;99.90;;;;;;5093608;28;20179;-44
2023/05/24 03:18:54;;;;;;;3.87;1.60;;;5.70;99.90;;;;;;5093666;28;20178;-44
2023/05/24 03:21:20;;;;;;;4.50;1.60;;;5.60;99.90;;;;;;5093509;28;20654;-44
2023/05/24 03:23:45;;;;;;;8.10;2.20;;;5.50;99.90;;;;;;5093428;28;20230;-41
2023/05/24 03:26:14;;;;;;;6.17;1.70;;;5.60;99.90;;;;;;5093772;28;20281;-44
2023/05/24 03:28:40;;;;;;;4.10;1.70;;;5.50;99.90;;;;;;5093559;28;20191;-43
2023/05/24 03:31:06;;;;;;;3.73;1.53;;;5.50;99.90;;;;;;5093896;28;20282;-42
2023/05/24 03:33:32;;;;;;;5.07;2.03;;;5.50;99.90;;;;;;5093338;28;20269;-43
2023/05/24 03:35:58;;;;;;;9.20;2.27;;;5.40;99.90;;;;;;5094203;28;20178;-44
2023/05/24 03:38:23;;;;;;;10.33;2.27;;;5.40;99.90;;;;;;5093661;28;20185;-46
2023/05/24 03:40:49;;;;;;;9.43;3.13;;;5.40;99.90;;;;;;5093268;28;20567;-43
2023/05/24 03:43:15;;;;;;;4.47;2.10;;;5.40;99.90;;;;;;5093521;28;20237;-43
2023/05/24 03:45:42;;;;;;;11.63;3.47;;;5.40;99.90;;;;;;5093574;28;20233;-43
2023/05/24 03:48:08;;;;;;;8.30;2.63;;;5.40;99.90;;;;;;5093318;28;20220;-44
2023/05/24 03:50:34;;;;;;;8.03;2.50;;;5.50;99.90;;;;;;5093197;28;20187;-45
2023/05/24 03:52:59;;;;;;;10.47;3.00;;;5.40;99.90;;;;;;5093153;28;20627;-44
2023/05/24 03:55:25;;;;;;;14.67;2.33;;;5.40;99.90;;;;;;5092114;28;20224;-43
2023/05/24 03:57:50;;;;;;;7.90;2.33;;;5.40;99.90;;;;;;5093486;28;20189;-42
2023/05/24 04:00:16;;;;;;;4.40;1.93;;;5.40;99.90;;;;;;5093310;28;20171;-45
2023/05/24 04:02:42;;;;;;;7.70;2.60;;;5.40;99.90;;;;;;5091818;28;20236;-42
2023/05/24 04:05:12;;;;;;;5.73;1.80;;;5.40;99.90;;;;;;5093789;28;20178;-42
2023/05/24 04:07:38;;;;;;;9.63;2.10;;;5.40;99.90;;;;;;5093061;28;20181;-45
2023/05/24 04:10:07;;;;;;;7.10;2.30;;;5.40;99.90;;;;;;5093177;28;20259;-45
2023/05/24 04:12:33;;;;;;;6.23;2.90;;;5.40;99.90;;;;;;5093199;28;20244;-44
2023/05/24 04:14:59;;;;;;;10.63;2.57;;;5.50;99.90;;;;;;5093349;28;20179;-44
2023/05/24 04:17:26;;;;;;;12.47;2.57;;;5.40;99.90;;;;;;5094894;28;20177;-43
2023/05/24 04:19:52;;;;;;;11.10;2.90;;;5.50;99.90;;;;;;5097282;28;20219;-44
2023/05/24 04:22:18;;;;;;;9.07;2.70;;;5.50;99.90;;;;;;5096895;28;20182;-45
2023/05/24 04:24:44;;;;;;;11.40;3.03;;;5.60;99.90;;;;;;5096802;28;20563;-44
2023/05/24 04:27:10;;;;;;;9.60;2.43;;;5.70;99.90;;;;;;5096957;28;20260;-46
2023/05/24 04:29:38;;;;;;;15.50;3.03;;;5.80;99.90;;;;;;5097362;28;20612;-44
2023/05/24 04:32:05;;;;;;;10.17;2.60;;;5.80;99.90;;;;;;5097055;28;20208;-43
2023/05/24 04:34:34;;;;;;;9.33;3.00;;;5.90;99.90;;;;;;5097992;28;20205;-46
2023/05/24 04:37:00;;;;;;;15.10;3.10;;;5.90;99.90;;;;;;5096918;28;20175;-45
2023/05/24 04:39:27;;;;;;;16.20;2.87;;;6.00;99.90;;;;;;5096751;28;20198;-44
2023/05/24 04:41:54;;;;;;;6.73;2.50;;;6.00;99.90;;;;;;5096727;28;20571;-42
2023/05/24 04:44:19;;;;;;;11.30;2.90;;;6.10;99.90;;;;;;5096773;28;20211;-42
2023/05/24 04:46:45;;;;;;;8.60;2.50;;;6.10;99.90;;;;;;5096498;28;20270;-42
2023/05/24 04:49:11;;;;;;;9.97;3.00;;;6.20;99.90;;;;;;5096393;28;20181;-43
2023/05/24 04:51:37;;;;;;;11.00;2.70;;;6.20;99.90;;;;;;5096518;28;20221;-42
2023/05/24 04:54:07;;;;;;;8.93;2.97;;;6.20;99.90;;;;;;5096226;28;20268;-43
2023/05/24 04:56:37;;;;;;;11.97;3.20;;;6.30;99.90;;;;;;5096275;28;20210;-45
2023/05/24 04:59:07;;;;;;;8.03;2.63;;;6.30;99.90;;;;;;5096300;28;20182;-43
2023/05/24 05:01:33;;;;;;;9.77;3.47;;;6.40;99.90;;;;;;5096072;28;20204;-44
2023/05/24 05:03:58;;;;;;;14.70;3.27;;;6.40;99.90;;;;;;5096149;28;20198;-45
2023/05/24 05:06:24;;;;;;;11.90;3.67;;;6.50;99.90;;;;;;5096302;28;20211;-43
2023/05/24 05:08:53;;;;;;;10.83;3.60;;;6.60;99.90;;;;;;5095975;28;20235;-46
2023/05/24 05:11:19;;;;;;;12.40;3.40;;;6.60;99.90;;;;;;5095919;28;20205;-44
2023/05/24 05:13:44;;;;;;;9.43;3.27;;;6.70;99.90;;;;;;5096105;28;20234;-45
2023/05/24 05:16:10;;;;;;;14.50;4.07;;;6.70;99.90;;;;;;5096560;28;20211;-43
2023/05/24 05:18:36;;;;;;;10.77;3.57;;;6.80;99.90;;;;;;5095793;28;20205;-44
2023/05/24 05:21:02;;;;;;;10.73;3.70;;;6.90;99.90;;;;;;5095813;28;20230;-43
2023/05/24 05:23:29;;;;;;;8.43;3.20;;;6.90;99.90;;;;;;5095913;28;20198;-43
2023/05/24 05:25:55;;;;;;;8.63;3.27;;;7.00;99.90;;;;;;5095646;28;20635;-43
2023/05/24 05:28:20;;;;;;;12.50;3.63;;;7.10;99.90;;;;;;5095588;28;20174;-42
2023/05/24 05:30:46;;;;;;;18.47;3.70;;;7.20;99.90;;;;;;5095775;28;20234;-45
2023/05/24 05:33:12;;;;;;;17.17;4.23;;;7.30;99.90;;;;;;5095358;28;20237;-44
2023/05/24 05:35:37;;;;;;;11.67;3.67;;;7.40;99.90;;;;;;5095486;28;20204;-43
2023/05/24 05:38:03;;;;;;;17.80;4.37;;;7.50;99.90;;;;;;5095503;28;20171;-46
2023/05/24 05:40:28;;;;;;;15.93;4.30;;;7.60;99.90;;;;;;5095792;28;20194;-44
2023/05/24 05:42:54;;;;;;;18.53;4.40;;;7.70;99.90;;;;;;5095307;28;20616;-45
2023/05/24 05:45:20;;;;;;;14.90;4.60;;;7.80;99.90;;;;;;5095277;28;20186;-42
2023/05/24 05:47:45;;;;;;;16.73;3.97;;;8.00;99.90;;;;;;5095211;28;20235;-43
2023/05/24 05:50:11;;;;;;;13.30;4.23;;;8.10;99.90;;;;;;5096048;28;20178;-44
2023/05/24 05:52:36;;;;;;;15.50;4.77;;;8.20;99.90;;;;;;5095283;28;20289;-41
2023/05/24 05:55:02;;;;;;;16.30;4.30;;;8.30;99.90;;;;;;5095919;28;20173;-43
2023/05/24 05:57:28;;;;;;;13.37;4.70;;;8.40;99.90;;;;;;5093849;28;20706;-46
2023/05/24 05:59:53;;;;;;;19.60;4.70;;;8.40;99.90;;;;;;5108260;28;20233;-44
2023/05/24 06:02:21;;;;;;;23.30;4.73;;;8.50;99.90;;;;;;5105784;28;20189;-44
2023/05/24 06:04:47;;;;;;;10.50;3.97;;;8.60;99.90;;;;;;5095359;28;20252;-44
2023/05/24 06:07:12;;;;;;;13.60;4.83;;;8.70;99.90;;;;;;5093838;28;20210;-42
2023/05/24 06:09:38;;;;;;;15.40;4.67;;;8.70;99.90;;;;;;5095188;28;20191;-45
2023/05/24 06:12:04;;;;;;;20.00;4.80;;;8.80;99.90;;;;;;5094977;28;20550;-44
2023/05/24 06:14:31;;;;;;;16.67;4.17;;;9.00;99.90;;;;;;5094677;28;20187;-45
2023/05/24 06:16:57;;;;;;;15.50;4.57;;;9.10;99.90;;;;;;5094912;28;20171;-46
2023/05/24 06:19:22;;;;;;;18.50;4.53;;;9.40;99.90;;;;;;5094644;28;20178;-45
2023/05/24 06:21:49;;;;;;;21.07;4.93;;;9.60;99.90;;;;;;5094502;28;20176;-42
2023/05/24 06:24:19;;;;;;;16.47;4.20;;;9.60;99.90;;;;;;5094494;28;20686;-43
2023/05/24 06:26:45;;;;;;;18.03;4.37;;;9.60;99.90;;;;;;5094508;28;20175;-45
2023/05/24 06:29:11;;;;;;;17.60;4.17;;;9.70;99.90;;;;;;5094735;28;20261;-43
2023/05/24 06:31:36;;;;;;;18.00;4.83;;;9.80;99.90;;;;;;5094557;28;20300;-45
2023/05/24 06:34:02;;;;;;;12.33;4.47;;;10.10;99.90;;;;;;5094268;28;20619;-47
2023/05/24 06:36:28;;;;;;;21.20;5.70;;;10.20;99.90;;;;;;5094388;28;20584;-44
2023/05/24 06:38:53;;;;;;;18.73;4.80;;;10.50;99.90;;;;;;5093965;28;20182;-45
2023/05/24 06:41:19;;;;;;;14.73;4.37;;;10.80;99.90;;;;;;5093814;28;20246;-45
2023/05/24 06:43:45;;;;;;;17.40;4.77;;;11.00;99.90;;;;;;5094335;28;20198;-45
2023/05/24 06:46:11;;;;;;;12.33;4.17;;;11.30;99.90;;;;;;5094707;28;20167;-43
2023/05/24 06:48:36;;;;;;;14.30;4.73;;;11.60;99.90;;;;;;5094545;28;20265;-41
2023/05/24 06:51:02;;;;;;;11.80;4.00;;;11.70;99.90;;;;;;5094352;28;20193;-42
2023/05/24 06:53:28;;;;;;;12.10;3.90;;;11.70;99.90;;;;;;5094258;28;20209;-43
2023/05/24 06:55:54;;;;;;;16.37;4.70;;;11.80;99.90;;;;;;5094258;28;20163;-46
2023/05/24 06:58:19;;;;;;;15.10;3.90;;;11.70;99.90;;;;;;5093919;28;20555;-45
2023/05/24 07:00:45;;;;;;;15.17;4.50;;;11.70;99.90;;;;;;5094165;28;20190;-42
2023/05/24 07:03:12;;;;;;;13.53;4.20;;;11.90;99.90;;;;;;5093918;28;20605;-43
2023/05/24 07:05:37;;;;;;;20.83;4.00;;;12.00;99.90;;;;;;5094057;28;20225;-44
2023/05/24 07:08:03;;;;;;;19.47;4.87;;;11.90;99.90;;;;;;5094250;28;20210;-45
2023/05/24 07:10:29;;;;;;;16.40;4.17;;;11.80;99.90;;;;;;5093811;28;20655;-43
2023/05/24 07:12:55;;;;;;;19.27;4.77;;;11.70;99.90;;;;;;5093791;28;20226;-44
2023/05/24 07:15:20;;;;;;;16.57;4.43;;;11.70;99.90;;;;;;5093790;28;20178;-44
2023/05/24 07:17:47;;;;;;;16.13;4.47;;;11.80;99.90;;;;;;5093472;28;20179;-44
2023/05/24 07:20:13;;;;;;;18.93;4.70;;;11.90;99.90;;;;;;5094198;28;20216;-43
2023/05/24 07:22:40;;;;;;;14.53;4.20;;;12.00;99.90;;;;;;5094198;28;20178;-45
2023/05/24 07:25:06;;;;;;;18.67;3.77;;;12.00;99.90;;;;;;5092458;28;20194;-44
2023/05/24 07:27:31;;;;;;;15.20;4.30;;;12.20;99.90;;;;;;5092365;28;20565;-42
2023/05/24 07:29:57;;;;;;;18.13;4.43;;;12.40;99.90;;;;;;5093548;28;20190;-43
2023/05/24 07:32:23;;;;;;;17.63;4.10;;;12.40;99.90;;;;;;5093996;28;20655;-43
2023/05/24 07:34:49;;;;;;;19.97;4.40;;;12.60;99.90;;;;;;5093424;28;20224;-45
2023/05/24 07:37:16;;;;;;;16.00;4.13;;;12.70;99.90;;;;;;5093418;28;20182;-44
2023/05/24 07:39:42;;;;;;;15.23;3.87;;;12.80;99.90;;;;;;5093551;28;20198;-43
2023/05/24 07:42:08;;;;;;;11.23;3.70;;;12.80;99.90;;;;;;5093431;28;20172;-46
2023/05/24 07:44:33;;;;;;;11.73;3.10;;;12.90;99.90;;;;;;5093316;28;20713;-46
2023/05/24 07:47:01;;;;;;;18.23;4.17;;;12.90;99.90;;;;;;5093493;28;20186;-46
2023/05/24 07:49:27;;;;;;;19.10;3.70;;;12.90;99.90;;;;;;5093626;28;20248;-45
2023/05/24 07:51:55;;;;;;;17.63;3.27;;;12.80;99.90;;;;;;5096282;28;20208;-45
2023/05/24 07:54:21;;;;;;;15.73;4.10;;;12.80;99.90;;;;;;5097579;28;20282;-44
2023/05/24 07:56:48;;;;;;;13.00;3.80;;;12.80;99.90;;;;;;5097449;28;20264;-44
2023/05/24 07:59:14;;;;;;;18.73;4.30;;;12.70;99.90;;;;;;5097571;28;20181;-42
2023/05/24 08:01:40;;;;;;;18.50;4.30;;;12.70;99.90;;;;;;5097645;28;20270;-45
2023/05/24 08:04:07;;;;;;;13.80;3.87;;;12.70;99.90;;;;;;5097419;28;20230;-45
2023/05/24 08:06:33;;;;;;;16.30;3.93;;;12.60;99.90;;;;;;5097482;28;20183;-44
2023/05/24 08:08:59;;;;;;;13.90;3.83;;;12.50;99.90;;;;;;5097427;28;20221;-46
2023/05/24 08:11:25;;;;;;;13.23;3.63;;;12.60;99.90;;;;;;5097043;28;20238;-44
2023/05/24 08:13:50;;;;;;;12.57;3.60;;;12.70;99.90;;;;;;5096989;28;20191;-44
2023/05/24 08:16:17;;;;;;;15.97;5.03;;;12.70;99.90;;;;;;5097058;28;20179;-46
2023/05/24 08:18:43;;;;;;;11.03;3.90;;;12.80;99.90;;;;;;5096957;28;20183;-46
2023/05/24 08:21:09;;;;;;;14.77;3.93;;;12.80;99.90;;;;;;5097018;28;20185;-46
2023/05/24 08:23:35;;;;;;;12.03;3.93;;;13.00;99.90;;;;;;5097132;28;20667;-47
2023/05/24 08:26:00;;;;;;;19.77;4.30;;;13.10;99.90;;;;;;5096917;28;20174;-45
2023/05/24 08:28:27;;;;;;;14.90;3.80;;;13.10;99.90;;;;;;5096780;28;20175;-45
2023/05/24 08:30:52;;;;;;;14.00;3.67;;;13.10;99.90;;;;;;5096721;28;20706;-44
2023/05/24 08:33:18;;;;;;;16.53;3.57;;;13.00;99.90;;;;;;5096846;28;20222;-44
2023/05/24 08:35:43;;;;;;;13.57;3.93;;;13.00;99.90;;;;;;5095758;28;20175;-45
2023/05/24 08:38:09;;;;;;;11.43;3.80;;;13.00;99.90;;;;;;5096614;28;20247;-46
2023/05/24 08:40:35;;;;;;;9.83;3.23;;;13.20;99.90;;;;;;5096489;28;20189;-44
2023/05/24 08:43:01;;;;;;;19.43;4.20;;;13.30;99.90;;;;;;5096531;28;20620;-45
2023/05/24 08:45:29;;;;;;;16.80;4.07;;;13.40;99.90;;;;;;5096493;28;20183;-45
2023/05/24 08:47:57;;;;;;;14.10;3.90;;;13.70;99.90;;;;;;5096601;28;20199;-46
2023/05/24 08:50:23;;;;;;;11.40;3.80;;;13.80;99.90;;;;;;5096612;28;20604;-46
2023/05/24 08:52:50;;;;;;;12.23;3.63;;;13.80;99.90;;;;;;5096245;28;20620;-45
2023/05/24 08:55:16;;;;;;;16.13;4.03;;;13.90;99.90;;;;;;5096594;28;20183;-46
2023/05/24 08:57:44;;;;;;;13.97;3.90;;;13.80;99.90;;;;;;5096300;28;20179;-45
2023/05/24 09:00:11;;;;;;;18.23;4.20;;;13.80;99.90;;;;;;5096151;28;20182;-46
2023/05/24 09:02:41;;;;;;;16.50;3.93;;;13.70;99.90;;;;;;5095425;28;20224;-45
2023/05/24 09:05:15;;;;;;;17.10;4.40;;;13.60;99.90;;;;;;5096048;28;20521;-45
2023/05/24 09:07:43;;;;;;;16.10;4.37;;;13.50;99.90;;;;;;5096324;28;20507;-46
2023/05/24 09:10:09;;;;;;;13.10;3.90;;;13.50;99.90;;;;;;5096234;28;20183;-45
2023/05/24 09:12:39;;;;;;;12.27;3.73;;;13.50;99.90;;;;;;5096033;28;20206;-45
2023/05/24 09:15:06;;;;;;;10.43;3.47;;;13.60;99.90;;;;;;5096192;28;20178;-46
2023/05/24 09:17:34;;;;;;;15.53;3.63;;;13.70;99.90;;;;;;5095759;28;20178;-46
2023/05/24 09:20:00;;;;;;;11.90;3.33;;;13.70;99.90;;;;;;5096103;28;20258;-46
2023/05/24 09:22:29;;;;;;;10.00;3.17;;;13.70;99.90;;;;;;5094437;28;20332;-45
2023/05/24 09:25:00;;;;;;;16.50;4.87;;;13.90;99.90;;;;;;5095987;28;20195;-45
2023/05/24 09:27:26;;;;;;;11.30;3.50;;;13.90;99.90;;;;;;5095706;28;20190;-45
2023/05/24 09:29:53;;;;;;;10.73;3.47;;;13.90;99.90;;;;;;5096132;28;20175;-45
2023/05/24 09:32:22;;;;;;;16.57;4.07;;;14.00;99.90;;;;;;5095457;28;20212;-47
2023/05/24 09:34:50;;;;;;;12.10;3.80;;;14.00;99.90;;;;;;5098302;28;20207;-46
2023/05/24 09:37:18;;;;;;;12.30;4.10;;;14.00;99.90;;;;;;5105075;28;20238;-46
2023/05/24 09:39:46;;;;;;;12.53;3.73;;;14.10;99.90;;;;;;5104343;28;20278;-46
2023/05/24 09:42:19;;;;;;;10.60;3.63;;;14.10;99.90;;;;;;5094823;28;20195;-46
2023/05/24 09:44:46;;;;;;;12.03;3.60;;;14.30;99.90;;;;;;5095382;28;20197;-46
2023/05/24 09:47:13;;;;;;;16.60;3.73;;;14.30;99.90;;;;;;5096218;28;20228;-51
2023/05/24 09:49:39;;;;;;;14.67;4.10;;;14.30;99.90;;;;;;5095761;28;20182;-51
2023/05/24 09:52:05;;;;;;;15.47;4.03;;;14.30;99.90;;;;;;5095701;28;20206;-52
2023/05/24 09:54:35;;;;;;;15.37;3.80;;;14.20;99.90;;;;;;5095520;28;20210;-51
2023/05/24 09:57:03;;;;;;;13.13;3.93;;;14.20;99.90;;;;;;5095155;28;20182;-52
2023/05/24 09:59:32;;;;;;;11.17;4.40;;;14.20;99.90;;;;;;5095266;28;20183;-51
2023/05/24 10:02:11;;;;;;;13.67;3.73;;;14.40;99.90;;;;;;5095268;28;20183;-51
2023/05/24 10:04:38;;;;;;;11.37;4.13;;;14.60;99.90;;;;;;5095059;28;20285;-53
2023/05/24 10:07:07;;;;;;;15.07;3.90;;;14.90;99.90;;;;;;5094928;28;20191;-52
2023/05/24 10:09:34;;;;;;;14.83;3.87;;;15.10;99.90;;;;;;5094748;28;20189;-52
2023/05/24 10:12:04;;;;;;;8.17;3.43;;;15.20;99.90;;;;;;5094916;28;20580;-53
2023/05/24 10:14:36;;;;;;;10.23;3.63;;;15.10;99.90;;;;;;5093665;28;20194;-52
2023/05/24 10:17:04;;;;;;;7.50;3.60;;;15.20;99.90;;;;;;5094597;28;20195;-52
2023/05/24 10:19:36;;;;;;;12.10;3.90;;;15.20;99.90;;;;;;5093358;28;20608;-51
2023/05/24 10:22:07;;;;;;;10.27;3.23;;;15.10;99.90;;;;;;5094736;28;20228;-51
2023/05/24 10:24:37;;;;;;;9.63;3.40;;;14.90;99.90;;;;;;5094652;28;20206;-51
2023/05/24 10:27:08;;;;;;;11.60;3.60;;;14.70;99.90;;;;;;5094690;28;20250;-51
2023/05/24 10:30:05;;;;;;;12.43;3.77;;;14.50;99.90;;;;;;5096739;28;20259;-50
2023/05/24 10:32:34;;;;;;;16.03;3.53;;;14.40;99.90;;;;;;5094161;28;20211;-51
2023/05/24 10:35:01;;;;;;;10.07;3.57;;;14.30;99.90;;;;;;5094541;28;20520;-52
2023/05/24 10:37:27;;;;;;;10.40;3.63;;;14.30;99.90;;;;;;5094425;28;20206;-52
2023/05/24 10:39:53;;;;;;;13.33;3.93;;;14.30;99.90;;;;;;5094152;28;20225;-51
2023/05/24 10:42:18;;;;;;;12.50;3.33;;;14.40;99.90;;;;;;5094407;28;20574;-51
2023/05/24 10:44:44;;;;;;;15.37;4.20;;;14.40;99.90;;;;;;5094143;28;20230;-50
2023/05/24 10:47:11;;;;;;;13.07;3.47;;;14.40;99.90;;;;;;5094091;28;20182;-52
2023/05/24 10:49:51;;;;;;;12.83;3.70;;;14.50;99.90;;;;;;5094089;28;20179;-50
2023/05/24 10:52:17;;;;;;;18.33;4.33;;;14.50;99.90;;;;;;5093962;28;20202;-51
2023/05/24 10:55:08;;;;;;;14.40;3.60;;;14.50;99.90;;;;;;5093974;28;20209;-51
2023/05/24 10:57:34;;;;;;;13.43;3.67;;;14.50;99.90;;;;;;5088826;28;20244;-53
2023/05/24 11:00:19;;;;;;;8.60;3.40;;;14.40;99.90;;;;;;5093872;28;20182;-52
2023/05/24 11:02:48;;;;;;;14.60;4.23;;;14.40;99.90;;;;;;5093770;28;20213;-51
2023/05/24 11:05:14;;;;;;;16.67;4.23;;;14.40;99.90;;;;;;5094060;28;20257;-52
2023/05/24 11:07:41;;;;;;;12.00;3.77;;;14.40;99.90;;;;;;5094358;28;20210;-51
2023/05/24 11:10:15;;;;;;;15.07;4.23;;;14.30;99.90;;;;;;5094009;28;20191;-52
2023/05/24 11:12:43;;;;;;;13.77;3.73;;;14.40;99.90;;;;;;5092574;28;20299;-52
2023/05/24 11:15:10;;;;;;;11.60;4.13;;;14.50;99.90;;;;;;5093958;28;20193;-51
2023/05/24 11:18:12;;;;;;;13.30;4.07;;;14.60;99.90;;;;;;5093642;28;20187;-50
2023/05/24 11:20:40;;;;;;;11.90;3.93;;;14.90;99.90;;;;;;5093975;28;20245;-52
2023/05/24 11:23:08;;;;;;;11.27;3.53;;;15.30;99.90;;;;;;5093681;28;20290;-45
2023/05/24 11:25:37;;;;;;;12.30;3.87;;;15.60;99.90;;;;;;5093619;28;20218;-45
2023/05/24 11:28:10;;;;;;;15.20;4.20;;;15.70;99.90;;;;;;5093618;28;20558;-46
2023/05/24 11:30:44;;;;;;;11.00;3.60;;;16.00;99.90;;;;;;5093887;28;20167;-45
2023/05/24 11:33:14;;;;;;;12.40;4.03;;;16.10;99.90;;;;;;5093803;28;20271;-46
2023/05/24 11:35:40;;;;;;;8.50;3.13;;;15.90;99.90;;;;;;5092249;28;20175;-47
2023/05/24 11:38:13;;;;;;;10.27;3.50;;;15.90;99.90;;;;;;5093728;28;20183;-46
2023/05/24 11:40:43;;;;;;;12.87;3.83;;;16.00;99.90;;;;;;5093399;28;20186;-47
2023/05/24 11:43:19;;;;;;;12.50;4.30;;;16.00;99.90;;;;;;5093876;28;20199;-45
2023/05/24 11:45:47;;;;;;;9.17;3.50;;;16.00;99.90;;;;;;5093402;28;20185;-45
2023/05/24 11:48:14;;;;;;;11.63;3.80;;;16.20;99.90;;;;;;5093681;28;20175;-45
2023/05/24 11:50:44;;;;;;;8.03;4.03;;;16.40;99.90;;;;;;5093663;28;20189;-46
2023/05/24 11:53:14;;;;;;;7.50;3.23;;;16.50;99.90;;;;;;5093577;28;20215;-45
2023/05/24 11:55:41;;;;;;;8.83;3.17;;;16.60;99.90;;;;;;5093582;28;20538;-44
2023/05/24 11:58:16;;;;;;;10.30;3.67;;;16.60;99.90;;;;;;5093181;28;20183;-46
2023/05/24 12:00:42;;;;;;;8.57;2.90;;;16.70;99.90;;;;;;5093325;28;20163;-45
2023/05/24 12:03:09;;;;;;;10.67;3.93;;;16.80;99.90;;;;;;5093178;28;20671;-46
2023/05/24 12:05:36;;;;;;;10.30;3.33;;;16.70;99.90;;;;;;5093537;28;20191;-47
2023/05/24 12:08:06;;;;;;;10.87;4.07;;;16.70;99.90;;;;;;5093243;28;20179;-46
2023/05/24 12:10:36;;;;;;;7.37;3.17;;;16.70;99.90;;;;;;5093473;28;20190;-48
2023/05/24 12:13:16;;;;;;;9.50;3.17;;;16.60;99.90;;;;;;5093286;28;20306;-47
2023/05/24 12:15:42;;;;;;;8.33;3.10;;;16.50;99.90;;;;;;5108939;28;20232;-45
2023/05/24 12:18:20;;;;;;;11.20;3.17;;;16.60;99.90;;;;;;5093386;28;20168;-44
2023/05/24 12:20:48;;;;;;;10.33;2.80;;;16.70;99.90;;;;;;5108672;28;20175;-46
2023/05/24 12:23:14;;;;;;;11.13;2.93;;;16.70;99.90;;;;;;5093332;28;20203;-45
2023/05/24 12:25:39;;;;;;;8.40;3.13;;;16.60;99.90;;;;;;5093072;28;20171;-48
2023/05/24 12:28:05;;;;;;;6.03;2.40;;;16.60;99.90;;;;;;5093323;28;20588;-47
2023/05/24 12:30:30;;;;;;;8.27;2.97;;;16.60;99.90;;;;;;5093509;28;20233;-46
2023/05/24 12:32:56;;;;;;;7.43;2.03;;;16.60;99.90;;;;;;5092815;28;20214;-45
2023/05/24 12:35:22;;;;;;;8.17;2.20;;;16.70;99.90;;;;;;5093107;28;20198;-45
2023/05/24 12:37:48;;;;;;;6.17;2.53;;;16.70;99.90;;;;;;5093783;28;20182;-42
2023/05/24 12:40:19;;;;;;;6.47;2.60;;;16.60;99.90;;;;;;5096346;28;20187;-45
2023/05/24 12:42:50;;;;;;;5.97;2.60;;;16.50;99.90;;;;;;5096784;28;20210;-46
2023/05/24 12:45:21;;;;;;;7.20;2.73;;;16.40;99.90;;;;;;5096824;28;20166;-44
2023/05/24 12:47:55;;;;;;;7.80;2.97;;;16.40;99.90;;;;;;5096829;28;20250;-47